sensor_id;sensor_type;location;lat;lon;timestamp;pressure;altitude;pressure_sealevel;temperature;humidity
76478;BME280;65309;49.790;18.972;2024-02-16T00:01:28;60062.31;;;-145.46;100.00
76478;BME280;65309;49.790;18.972;2024-02-16T00:06:30;60091.72;;;-145.46;100.00
76478;BME280;65309;49.790;18.972;2024-02-16T00:11:33;60070.72;;;-145.46;100.00
76478;BME280;65309;49.790;18.972;2024-02-16T00:16:36;60062.31;;;-145.46;100.00
76478;BME280;65309;49.790;18.972;2024-02-16T00:21:39;60087.53;;;-145.46;100.00
76478;BME280;65309;49.790;18.972;2024-02-16T00:26:44;60121.16;;;-145.46;100.00
76478;BME280;65309;49.790;18.972;2024-02-16T00:31:48;60045.47;;;-145.46;100.00
76478;BME280;65309;49.790;18.972;2024-02-16T00:36:51;60085.44;;;-145.46;100.00
76478;BME280;65309;49.790;18.972;2024-02-16T00:41:53;60091.72;;;-145.46;100.00
76478;BME280;65309;49.790;18.972;2024-02-16T00:46:58;60066.50;;;-145.46;100.00
76478;BME280;65309;49.790;18.972;2024-02-16T00:52:00;60045.47;;;-145.46;100.00
76478;BME280;65309;49.790;18.972;2024-02-16T00:57:04;60091.72;;;-145.46;100.00
76478;BME280;65309;49.790;18.972;2024-02-16T01:02:08;60093.84;;;-145.46;100.00
76478;BME280;65309;49.790;18.972;2024-02-16T01:07:12;60104.34;;;-145.46;100.00
76478;BME280;65309;49.790;18.972;2024-02-16T01:12:14;60062.31;;;-145.46;100.00
76478;BME280;65309;49.790;18.972;2024-02-16T01:17:17;60056.00;;;-145.46;100.00
76478;BME280;65309;49.790;18.972;2024-02-16T01:22:20;60133.78;;;-145.46;100.00
76478;BME280;65309;49.790;18.972;2024-02-16T01:27:22;60072.81;;;-145.46;100.00
76478;BME280;65309;49.790;18.972;2024-02-16T01:32:26;60070.72;;;-145.46;100.00
76478;BME280;65309;49.790;18.972;2024-02-16T01:37:28;60112.75;;;-145.46;100.00
76478;BME280;65309;49.790;18.972;2024-02-16T01:42:31;60070.72;;;-145.46;100.00
76478;BME280;65309;49.790;18.972;2024-02-16T01:47:34;60070.72;;;-145.46;100.00
76478;BME280;65309;49.790;18.972;2024-02-16T01:52:37;60074.91;;;-145.46;100.00
76478;BME280;65309;49.790;18.972;2024-02-16T01:57:40;60062.31;;;-145.46;100.00
76478;BME280;65309;49.790;18.972;2024-02-16T02:02:46;60116.97;;;-145.46;100.00
76478;BME280;65309;49.790;18.972;2024-02-16T02:07:49;60079.13;;;-145.46;100.00
76478;BME280;65309;49.790;18.972;2024-02-16T02:12:52;60095.94;;;-145.46;100.00
76478;BME280;65309;49.790;18.972;2024-02-16T02:17:55;60137.97;;;-145.46;100.00
76478;BME280;65309;49.790;18.972;2024-02-16T02:22:59;60087.53;;;-145.46;100.00
76478;BME280;65309;49.790;18.972;2024-02-16T02:28:01;60056.00;;;-145.46;100.00
76478;BME280;65309;49.790;18.972;2024-02-16T02:33:04;60047.59;;;-145.46;100.00
76478;BME280;65309;49.790;18.972;2024-02-16T02:38:08;60129.56;;;-145.46;100.00
76478;BME280;65309;49.790;18.972;2024-02-16T02:43:10;60112.75;;;-145.46;100.00
76478;BME280;65309;49.790;18.972;2024-02-16T02:48:14;60074.91;;;-145.46;100.00
76478;BME280;65309;49.790;18.972;2024-02-16T02:53:17;60020.25;;;-145.46;100.00
76478;BME280;65309;49.790;18.972;2024-02-16T02:58:20;60074.91;;;-145.46;100.00
76478;BME280;65309;49.790;18.972;2024-02-16T03:03:22;60102.25;;;-145.46;100.00
76478;BME280;65309;49.790;18.972;2024-02-16T03:08:26;60091.72;;;-145.46;100.00
76478;BME280;65309;49.790;18.972;2024-02-16T03:13:28;60058.09;;;-145.46;100.00
76478;BME280;65309;49.790;18.972;2024-02-16T03:18:30;60087.53;;;-145.46;100.00
76478;BME280;65309;49.790;18.972;2024-02-16T03:23:34;60070.72;;;-145.46;100.00
76478;BME280;65309;49.790;18.972;2024-02-16T03:28:36;60074.91;;;-145.46;100.00
76478;BME280;65309;49.790;18.972;2024-02-16T03:33:39;60079.13;;;-145.46;100.00
76478;BME280;65309;49.790;18.972;2024-02-16T03:38:43;60070.72;;;-145.46;100.00
76478;BME280;65309;49.790;18.972;2024-02-16T03:43:45;60079.13;;;-145.46;100.00
76478;BME280;65309;49.790;18.972;2024-02-16T03:48:47;60077.00;;;-145.46;98.90
76478;BME280;65309;49.790;18.972;2024-02-16T03:53:51;60087.53;;;-145.46;99.20
76478;BME280;65309;49.790;18.972;2024-02-16T03:58:53;60108.56;;;-145.46;98.76
76478;BME280;65309;49.790;18.972;2024-02-16T04:03:55;60062.31;;;-145.46;98.07
76478;BME280;65309;49.790;18.972;2024-02-16T04:08:59;60070.72;;;-145.46;97.53
76478;BME280;65309;49.790;18.972;2024-02-16T04:14:01;60112.75;;;-145.46;97.14
76478;BME280;65309;49.790;18.972;2024-02-16T04:19:03;60049.69;;;-145.46;96.16
76478;BME280;65309;49.790;18.972;2024-02-16T04:24:07;60070.72;;;-145.46;95.64
76478;BME280;65309;49.790;18.972;2024-02-16T04:29:09;60070.72;;;-145.46;94.96
76478;BME280;65309;49.790;18.972;2024-02-16T04:34:13;60062.31;;;-145.46;95.43
76478;BME280;65309;49.790;18.972;2024-02-16T04:39:17;60085.44;;;-145.46;94.56
76478;BME280;65309;49.790;18.972;2024-02-16T04:44:19;60041.28;;;-145.46;94.99
76478;BME280;65309;49.790;18.972;2024-02-16T04:49:21;60058.09;;;-145.46;96.51
76478;BME280;65309;49.790;18.972;2024-02-16T04:54:25;60070.72;;;-145.46;95.23
76478;BME280;65309;49.790;18.972;2024-02-16T04:59:27;60058.09;;;-145.46;95.02
76478;BME280;65309;49.790;18.972;2024-02-16T05:04:29;60022.34;;;-145.46;95.18
76478;BME280;65309;49.790;18.972;2024-02-16T05:09:33;60045.47;;;-145.46;94.42
76478;BME280;65309;49.790;18.972;2024-02-16T05:14:35;60060.19;;;-145.46;94.23
76478;BME280;65309;49.790;18.972;2024-02-16T05:19:38;60087.53;;;-145.46;94.24
76478;BME280;65309;49.790;18.972;2024-02-16T05:24:41;60066.50;;;-145.46;94.26
76478;BME280;65309;49.790;18.972;2024-02-16T05:29:44;60087.53;;;-145.46;93.58
76478;BME280;65309;49.790;18.972;2024-02-16T05:34:47;60041.28;;;-145.46;93.80
76478;BME280;65309;49.790;18.972;2024-02-16T05:39:51;60058.09;;;-145.46;93.48
76478;BME280;65309;49.790;18.972;2024-02-16T05:45:09;60106.44;;;-145.46;93.18
76478;BME280;65309;49.790;18.972;2024-02-16T05:50:14;60034.97;;;-145.46;92.63
76478;BME280;65309;49.790;18.972;2024-02-16T05:55:18;60066.50;;;-145.46;92.65
76478;BME280;65309;49.790;18.972;2024-02-16T06:00:23;60070.72;;;-145.46;92.31
76478;BME280;65309;49.790;18.972;2024-02-16T06:05:25;60106.44;;;-145.46;92.38
76478;BME280;65309;49.790;18.972;2024-02-16T06:10:29;60072.81;;;-145.46;92.28
76478;BME280;65309;49.790;18.972;2024-02-16T06:15:31;60079.13;;;-145.46;91.98
76478;BME280;65309;49.790;18.972;2024-02-16T06:20:33;60047.59;;;-145.46;92.30
76478;BME280;65309;49.790;18.972;2024-02-16T06:25:37;60095.94;;;-145.46;92.33
76478;BME280;65309;49.790;18.972;2024-02-16T06:30:39;60070.72;;;-145.46;93.29
76478;BME280;65309;49.790;18.972;2024-02-16T06:35:41;60091.72;;;-145.46;93.18
76478;BME280;65309;49.790;18.972;2024-02-16T06:40:45;60058.09;;;-145.46;93.41
76478;BME280;65309;49.790;18.972;2024-02-16T06:45:47;60081.22;;;-145.46;95.00
76478;BME280;65309;49.790;18.972;2024-02-16T06:50:49;60043.38;;;-145.46;96.46
76478;BME280;65309;49.790;18.972;2024-02-16T06:55:53;60045.47;;;-145.46;94.00
76478;BME280;65309;49.790;18.972;2024-02-16T07:00:55;60072.81;;;-145.46;93.15
76478;BME280;65309;49.790;18.972;2024-02-16T07:05:57;60024.47;;;-145.46;91.83
76478;BME280;65309;49.790;18.972;2024-02-16T07:11:01;60091.72;;;-145.46;89.59
76478;BME280;65309;49.790;18.972;2024-02-16T07:16:05;60085.44;;;-145.46;90.10
76478;BME280;65309;49.790;18.972;2024-02-16T07:21:10;60058.09;;;-145.46;88.71
76478;BME280;65309;49.790;18.972;2024-02-16T07:26:14;60056.00;;;-145.46;86.17
76478;BME280;65309;49.790;18.972;2024-02-16T07:31:18;60085.44;;;-145.46;86.47
76478;BME280;65309;49.790;18.972;2024-02-16T07:36:21;60053.91;;;-145.46;85.31
76478;BME280;65309;49.790;18.972;2024-02-16T07:41:24;60028.66;;;-145.46;85.76
76478;BME280;65309;49.790;18.972;2024-02-16T07:46:26;60037.06;;;-145.46;86.14
76478;BME280;65309;49.790;18.972;2024-02-16T07:51:28;60049.69;;;-145.46;85.32
76478;BME280;65309;49.790;18.972;2024-02-16T07:56:32;60043.38;;;-145.46;84.17
76478;BME280;65309;49.790;18.972;2024-02-16T08:01:34;60081.22;;;-145.46;83.52
76478;BME280;65309;49.790;18.972;2024-02-16T08:06:37;60032.88;;;-145.46;84.32
76478;BME280;65309;49.790;18.972;2024-02-16T08:11:40;60045.47;;;-145.46;82.22
76478;BME280;65309;49.790;18.972;2024-02-16T08:16:43;60041.28;;;-145.46;83.17
76478;BME280;65309;49.790;18.972;2024-02-16T08:21:45;60053.91;;;-145.46;81.96
76478;BME280;65309;49.790;18.972;2024-02-16T08:26:49;60053.91;;;-145.46;84.80
76478;BME280;65309;49.790;18.972;2024-02-16T08:31:52;60016.06;;;-145.46;77.09
76478;BME280;65309;49.790;18.972;2024-02-16T08:36:54;60053.91;;;-145.46;72.94
76478;BME280;65309;49.790;18.972;2024-02-16T08:41:58;60013.94;;;-145.46;75.60
76478;BME280;65309;49.790;18.972;2024-02-16T08:47:00;60074.91;;;-145.46;75.43
76478;BME280;65309;49.790;18.972;2024-02-16T08:52:03;60032.88;;;-145.46;76.01
76478;BME280;65309;49.790;18.972;2024-02-16T08:57:07;60024.47;;;-145.46;75.75
76478;BME280;65309;49.790;18.972;2024-02-16T09:02:09;60016.06;;;-145.46;74.45
76478;BME280;65309;49.790;18.972;2024-02-16T09:07:11;59990.81;;;-145.46;74.43
76478;BME280;65309;49.790;18.972;2024-02-16T09:12:15;59978.22;;;-145.46;74.83
76478;BME280;65309;49.790;18.972;2024-02-16T09:17:18;60007.66;;;-145.46;73.62
76478;BME280;65309;49.790;18.972;2024-02-16T09:22:22;60026.56;;;-145.46;73.51
76478;BME280;65309;49.790;18.972;2024-02-16T09:27:40;60034.97;;;-145.46;72.51
76478;BME280;65309;49.790;18.972;2024-02-16T09:32:43;59992.94;;;-145.46;72.85
76478;BME280;65309;49.790;18.972;2024-02-16T09:37:46;60020.25;;;-145.46;72.83
76478;BME280;65309;49.790;18.972;2024-02-16T09:42:49;60003.44;;;-145.46;73.18
76478;BME280;65309;49.790;18.972;2024-02-16T09:47:54;60005.53;;;-145.46;72.52
76478;BME280;65309;49.790;18.972;2024-02-16T09:53:05;60009.75;;;-145.46;71.98
76478;BME280;65309;49.790;18.972;2024-02-16T09:58:10;60032.88;;;-145.46;72.21
76478;BME280;65309;49.790;18.972;2024-02-16T10:03:26;60003.44;;;-145.46;70.12
76478;BME280;65309;49.790;18.972;2024-02-16T10:08:28;59982.41;;;-145.46;71.25
76478;BME280;65309;49.790;18.972;2024-02-16T10:13:32;59997.13;;;-145.46;71.16
76478;BME280;65309;49.790;18.972;2024-02-16T10:18:34;59978.22;;;-145.46;69.56
76478;BME280;65309;49.790;18.972;2024-02-16T10:23:37;60005.53;;;-145.46;69.28
76478;BME280;65309;49.790;18.972;2024-02-16T10:28:43;60034.97;;;-145.46;69.18
76478;BME280;65309;49.790;18.972;2024-02-16T10:33:47;60011.84;;;-145.46;69.62
76478;BME280;65309;49.790;18.972;2024-02-16T10:38:51;60016.06;;;-145.46;68.67
76478;BME280;65309;49.790;18.972;2024-02-16T10:43:56;59982.41;;;-145.46;67.79
76478;BME280;65309;49.790;18.972;2024-02-16T10:48:58;59965.59;;;-145.46;67.64
76478;BME280;65309;49.790;18.972;2024-02-16T10:54:02;60011.84;;;-145.46;67.63
76478;BME280;65309;49.790;18.972;2024-02-16T10:59:10;60020.25;;;-145.46;67.29
76478;BME280;65309;49.790;18.972;2024-02-16T11:04:15;59961.41;;;-145.46;67.29
76478;BME280;65309;49.790;18.972;2024-02-16T11:09:28;60003.44;;;-145.46;68.00
76478;BME280;65309;49.790;18.972;2024-02-16T11:14:36;59986.63;;;-145.46;66.92
76478;BME280;65309;49.790;18.972;2024-02-16T11:19:40;59974.00;;;-145.46;67.76
76478;BME280;65309;49.790;18.972;2024-02-16T11:24:44;59965.59;;;-145.46;66.44
76478;BME280;65309;49.790;18.972;2024-02-16T11:29:48;60032.88;;;-145.46;66.89
76478;BME280;65309;49.790;18.972;2024-02-16T11:34:51;60011.84;;;-145.46;65.07
76478;BME280;65309;49.790;18.972;2024-02-16T11:39:55;60007.66;;;-145.46;65.40
76478;BME280;65309;49.790;18.972;2024-02-16T11:44:58;59986.63;;;-145.46;65.40
76478;BME280;65309;49.790;18.972;2024-02-16T11:50:02;60005.53;;;-145.46;66.32
76478;BME280;65309;49.790;18.972;2024-02-16T11:55:08;60024.47;;;-145.46;65.36
76478;BME280;65309;49.790;18.972;2024-02-16T12:00:13;60018.16;;;-145.46;64.53
76478;BME280;65309;49.790;18.972;2024-02-16T12:05:17;59984.53;;;-145.46;64.24
76478;BME280;65309;49.790;18.972;2024-02-16T12:10:20;59967.69;;;-145.46;65.09
76478;BME280;65309;49.790;18.972;2024-02-16T12:15:23;59986.63;;;-145.46;64.26
76478;BME280;65309;49.790;18.972;2024-02-16T12:20:26;60005.53;;;-145.46;64.48
76478;BME280;65309;49.790;18.972;2024-02-16T12:25:28;60018.16;;;-145.46;63.61
76478;BME280;65309;49.790;18.972;2024-02-16T12:30:31;60003.44;;;-145.46;64.53
76478;BME280;65309;49.790;18.972;2024-02-16T12:35:33;59984.53;;;-145.46;63.08
76478;BME280;65309;49.790;18.972;2024-02-16T12:40:36;60009.75;;;-145.46;64.03
76478;BME280;65309;49.790;18.972;2024-02-16T12:45:40;59963.50;;;-145.46;63.48
76478;BME280;65309;49.790;18.972;2024-02-16T12:50:42;60005.53;;;-145.46;63.39
76478;BME280;65309;49.790;18.972;2024-02-16T12:55:44;60011.84;;;-145.46;65.18
76478;BME280;65309;49.790;18.972;2024-02-16T13:00:48;60028.66;;;-145.46;64.59
76478;BME280;65309;49.790;18.972;2024-02-16T13:05:50;60011.84;;;-145.46;63.38
76478;BME280;65309;49.790;18.972;2024-02-16T13:10:52;60028.66;;;-145.46;64.48
76478;BME280;65309;49.790;18.972;2024-02-16T13:15:56;59988.72;;;-145.46;64.18
76478;BME280;65309;49.790;18.972;2024-02-16T13:21:00;59963.50;;;-145.46;61.49
76478;BME280;65309;49.790;18.972;2024-02-16T13:26:03;60013.94;;;-145.46;63.17
76478;BME280;65309;49.790;18.972;2024-02-16T13:31:08;60028.66;;;-145.46;61.71
76478;BME280;65309;49.790;18.972;2024-02-16T13:36:12;59988.72;;;-145.46;63.15
76478;BME280;65309;49.790;18.972;2024-02-16T13:41:14;60018.16;;;-145.46;62.67
76478;BME280;65309;49.790;18.972;2024-02-16T13:46:35;60032.88;;;-145.46;64.31
76478;BME280;65309;49.790;18.972;2024-02-16T13:51:54;59961.41;;;-145.46;63.74
76478;BME280;65309;49.790;18.972;2024-02-16T13:57:17;59986.63;;;-145.46;63.03
76478;BME280;65309;49.790;18.972;2024-02-16T14:02:38;59978.22;;;-145.46;64.72
76478;BME280;65309;49.790;18.972;2024-02-16T14:07:58;59978.22;;;-145.46;64.67
76478;BME280;65309;49.790;18.972;2024-02-16T14:13:18;59986.63;;;-145.46;67.41
76478;BME280;65309;49.790;18.972;2024-02-16T14:18:23;59974.00;;;-145.46;67.84
76478;BME280;65309;49.790;18.972;2024-02-16T14:23:35;59988.72;;;-145.46;67.20
76478;BME280;65309;49.790;18.972;2024-02-16T14:28:38;60005.53;;;-145.46;67.25
76478;BME280;65309;49.790;18.972;2024-02-16T14:33:41;59984.53;;;-145.46;69.43
76478;BME280;65309;49.790;18.972;2024-02-16T14:38:45;60020.25;;;-145.46;69.10
76478;BME280;65309;49.790;18.972;2024-02-16T14:43:47;59976.13;;;-145.46;69.86
76478;BME280;65309;49.790;18.972;2024-02-16T14:48:51;60003.44;;;-145.46;69.08
76478;BME280;65309;49.790;18.972;2024-02-16T14:53:54;60003.44;;;-145.46;69.66
76478;BME280;65309;49.790;18.972;2024-02-16T14:58:56;60066.50;;;-145.46;70.32
76478;BME280;65309;49.790;18.972;2024-02-16T15:04:00;59982.41;;;-145.46;69.68
76478;BME280;65309;49.790;18.972;2024-02-16T15:09:03;60013.94;;;-145.46;71.20
76478;BME280;65309;49.790;18.972;2024-02-16T15:14:06;60020.25;;;-145.46;72.73
76478;BME280;65309;49.790;18.972;2024-02-16T15:19:10;60022.34;;;-145.46;72.81
76478;BME280;65309;49.790;18.972;2024-02-16T15:24:12;60039.19;;;-145.46;73.96
76478;BME280;65309;49.790;18.972;2024-02-16T15:29:14;60013.94;;;-145.46;75.55
76478;BME280;65309;49.790;18.972;2024-02-16T15:34:18;60032.88;;;-145.46;76.25
76478;BME280;65309;49.790;18.972;2024-02-16T15:39:20;60026.56;;;-145.46;77.00
76478;BME280;65309;49.790;18.972;2024-02-16T15:44:22;60041.28;;;-145.46;76.15
76478;BME280;65309;49.790;18.972;2024-02-16T15:49:26;60022.34;;;-145.46;75.02
76478;BME280;65309;49.790;18.972;2024-02-16T15:54:28;60049.69;;;-145.46;74.73
76478;BME280;65309;49.790;18.972;2024-02-16T15:59:30;60009.75;;;-145.46;74.97
76478;BME280;65309;49.790;18.972;2024-02-16T16:04:34;60066.50;;;-145.46;75.52
76478;BME280;65309;49.790;18.972;2024-02-16T16:09:36;59992.94;;;-145.46;76.28
76478;BME280;65309;49.790;18.972;2024-02-16T16:14:39;60028.66;;;-145.46;76.23
76478;BME280;65309;49.790;18.972;2024-02-16T16:19:43;60011.84;;;-145.46;77.00
76478;BME280;65309;49.790;18.972;2024-02-16T16:24:45;60028.66;;;-145.46;77.19
76478;BME280;65309;49.790;18.972;2024-02-16T16:29:47;60016.06;;;-145.46;77.13
76478;BME280;65309;49.790;18.972;2024-02-16T16:34:53;60034.97;;;-145.46;77.91
76478;BME280;65309;49.790;18.972;2024-02-16T16:39:56;60037.06;;;-145.46;78.26
76478;BME280;65309;49.790;18.972;2024-02-16T16:44:58;60045.47;;;-145.46;76.94
76478;BME280;65309;49.790;18.972;2024-02-16T16:50:02;59999.22;;;-145.46;77.48
76478;BME280;65309;49.790;18.972;2024-02-16T16:55:06;60020.25;;;-145.46;77.67
76478;BME280;65309;49.790;18.972;2024-02-16T17:00:09;60077.00;;;-145.46;77.18
76478;BME280;65309;49.790;18.972;2024-02-16T17:05:12;60022.34;;;-145.46;76.90
76478;BME280;65309;49.790;18.972;2024-02-16T17:10:15;60020.25;;;-145.46;76.79
76478;BME280;65309;49.790;18.972;2024-02-16T17:15:18;59990.81;;;-145.46;76.67
76478;BME280;65309;49.790;18.972;2024-02-16T17:20:22;60077.00;;;-145.46;77.05
76478;BME280;65309;49.790;18.972;2024-02-16T17:25:26;60045.47;;;-145.46;77.29
76478;BME280;65309;49.790;18.972;2024-02-16T17:30:28;60043.38;;;-145.46;77.31
76478;BME280;65309;49.790;18.972;2024-02-16T17:35:35;60024.47;;;-145.46;77.23
76478;BME280;65309;49.790;18.972;2024-02-16T17:40:38;60049.69;;;-145.46;76.48
76478;BME280;65309;49.790;18.972;2024-02-16T17:45:46;60009.75;;;-145.46;77.84
76478;BME280;65309;49.790;18.972;2024-02-16T17:50:58;60056.00;;;-145.46;77.68
76478;BME280;65309;49.790;18.972;2024-02-16T17:56:01;60007.66;;;-145.46;77.60
76478;BME280;65309;49.790;18.972;2024-02-16T18:01:03;60007.66;;;-145.46;77.56
76478;BME280;65309;49.790;18.972;2024-02-16T18:06:07;60001.34;;;-145.46;77.70
76478;BME280;65309;49.790;18.972;2024-02-16T18:11:10;60016.06;;;-145.46;78.56
76478;BME280;65309;49.790;18.972;2024-02-16T18:16:12;60020.25;;;-145.46;79.89
76478;BME280;65309;49.790;18.972;2024-02-16T18:21:16;60060.19;;;-145.46;79.52
76478;BME280;65309;49.790;18.972;2024-02-16T18:26:19;60049.69;;;-145.46;78.87
76478;BME280;65309;49.790;18.972;2024-02-16T18:31:21;60030.78;;;-145.46;79.15
76478;BME280;65309;49.790;18.972;2024-02-16T18:36:24;60074.91;;;-145.46;78.61
76478;BME280;65309;49.790;18.972;2024-02-16T18:41:29;60041.28;;;-145.46;77.86
76478;BME280;65309;49.790;18.972;2024-02-16T18:46:31;60037.06;;;-145.46;77.97
76478;BME280;65309;49.790;18.972;2024-02-16T18:51:37;60041.28;;;-145.46;78.37
76478;BME280;65309;49.790;18.972;2024-02-16T18:56:39;59986.63;;;-145.46;78.36
76478;BME280;65309;49.790;18.972;2024-02-16T19:01:42;60045.47;;;-145.46;79.74
76478;BME280;65309;49.790;18.972;2024-02-16T19:06:46;60070.72;;;-145.46;78.83
76478;BME280;65309;49.790;18.972;2024-02-16T19:11:48;60016.06;;;-145.46;78.09
76478;BME280;65309;49.790;18.972;2024-02-16T19:16:51;60024.47;;;-145.46;79.24
76478;BME280;65309;49.790;18.972;2024-02-16T19:21:55;60037.06;;;-145.46;78.86
76478;BME280;65309;49.790;18.972;2024-02-16T19:26:58;59982.41;;;-145.46;79.02
76478;BME280;65309;49.790;18.972;2024-02-16T19:32:01;60049.69;;;-145.46;78.80
76478;BME280;65309;49.790;18.972;2024-02-16T19:37:04;60024.47;;;-145.46;78.84
76478;BME280;65309;49.790;18.972;2024-02-16T19:42:07;60028.66;;;-145.46;79.59
76478;BME280;65309;49.790;18.972;2024-02-16T19:47:09;60024.47;;;-145.46;80.09
76478;BME280;65309;49.790;18.972;2024-02-16T19:52:14;60053.91;;;-145.46;79.89
76478;BME280;65309;49.790;18.972;2024-02-16T19:57:20;60037.06;;;-145.46;79.88
76478;BME280;65309;49.790;18.972;2024-02-16T20:02:23;60053.91;;;-145.46;80.22
76478;BME280;65309;49.790;18.972;2024-02-16T20:07:26;60024.47;;;-145.46;79.92
76478;BME280;65309;49.790;18.972;2024-02-16T20:12:30;60026.56;;;-145.46;79.99
76478;BME280;65309;49.790;18.972;2024-02-16T20:17:32;60034.97;;;-145.46;80.15
76478;BME280;65309;49.790;18.972;2024-02-16T20:22:36;60068.59;;;-145.46;80.43
76478;BME280;65309;49.790;18.972;2024-02-16T20:27:38;60041.28;;;-145.46;81.51
76478;BME280;65309;49.790;18.972;2024-02-16T20:32:41;60074.91;;;-145.46;80.55
76478;BME280;65309;49.790;18.972;2024-02-16T20:37:47;60022.34;;;-145.46;80.33
76478;BME280;65309;49.790;18.972;2024-02-16T20:42:50;60024.47;;;-145.46;81.14
76478;BME280;65309;49.790;18.972;2024-02-16T20:47:52;60053.91;;;-145.46;80.94
76478;BME280;65309;49.790;18.972;2024-02-16T20:52:55;60020.25;;;-145.46;81.33
76478;BME280;65309;49.790;18.972;2024-02-16T20:57:58;60041.28;;;-145.46;81.69
76478;BME280;65309;49.790;18.972;2024-02-16T21:03:01;60037.06;;;-145.46;81.21
76478;BME280;65309;49.790;18.972;2024-02-16T21:08:06;60045.47;;;-145.46;81.25
76478;BME280;65309;49.790;18.972;2024-02-16T21:13:08;60028.66;;;-145.46;81.01
76478;BME280;65309;49.790;18.972;2024-02-16T21:18:10;60030.78;;;-145.46;79.98
76478;BME280;65309;49.790;18.972;2024-02-16T21:23:14;60041.28;;;-145.46;80.48
76478;BME280;65309;49.790;18.972;2024-02-16T21:28:16;60013.94;;;-145.46;81.24
76478;BME280;65309;49.790;18.972;2024-02-16T21:33:19;60024.47;;;-145.46;80.22
76478;BME280;65309;49.790;18.972;2024-02-16T21:38:23;59986.63;;;-145.46;80.97
76478;BME280;65309;49.790;18.972;2024-02-16T21:43:25;60037.06;;;-145.46;80.54
76478;BME280;65309;49.790;18.972;2024-02-16T21:48:28;60037.06;;;-145.46;81.80
76478;BME280;65309;49.790;18.972;2024-02-16T21:53:42;60034.97;;;-145.46;81.99
76478;BME280;65309;49.790;18.972;2024-02-16T21:58:44;60032.88;;;-145.46;81.48
76478;BME280;65309;49.790;18.972;2024-02-16T22:03:47;60018.16;;;-145.46;81.78
76478;BME280;65309;49.790;18.972;2024-02-16T22:08:55;60043.38;;;-145.46;82.08
76478;BME280;65309;49.790;18.972;2024-02-16T22:13:57;60056.00;;;-145.46;82.10
76478;BME280;65309;49.790;18.972;2024-02-16T22:19:00;60020.25;;;-145.46;81.70
76478;BME280;65309;49.790;18.972;2024-02-16T22:24:04;60060.19;;;-145.46;81.99
76478;BME280;65309;49.790;18.972;2024-02-16T22:29:08;60018.16;;;-145.46;80.17
76478;BME280;65309;49.790;18.972;2024-02-16T22:34:10;60009.75;;;-145.46;81.56
76478;BME280;65309;49.790;18.972;2024-02-16T22:39:14;60041.28;;;-145.46;80.26
76478;BME280;65309;49.790;18.972;2024-02-16T22:44:17;60030.78;;;-145.46;80.33
76478;BME280;65309;49.790;18.972;2024-02-16T22:49:20;59995.03;;;-145.46;81.03
76478;BME280;65309;49.790;18.972;2024-02-16T22:54:23;60026.56;;;-145.46;80.96
76478;BME280;65309;49.790;18.972;2024-02-16T22:59:26;60047.59;;;-145.46;79.96
76478;BME280;65309;49.790;18.972;2024-02-16T23:04:28;60053.91;;;-145.46;80.37
76478;BME280;65309;49.790;18.972;2024-02-16T23:09:32;60041.28;;;-145.46;79.26
76478;BME280;65309;49.790;18.972;2024-02-16T23:14:34;59969.81;;;-145.46;78.78
76478;BME280;65309;49.790;18.972;2024-02-16T23:19:37;60007.66;;;-145.46;77.87
76478;BME280;65309;49.790;18.972;2024-02-16T23:24:40;60022.34;;;-145.46;77.59
76478;BME280;65309;49.790;18.972;2024-02-16T23:29:43;60022.34;;;-145.46;78.28
76478;BME280;65309;49.790;18.972;2024-02-16T23:34:45;60068.59;;;-145.46;79.32
76478;BME280;65309;49.790;18.972;2024-02-16T23:39:48;60051.78;;;-145.46;78.70
76478;BME280;65309;49.790;18.972;2024-02-16T23:44:51;60070.72;;;-145.46;78.70
76478;BME280;65309;49.790;18.972;2024-02-16T23:49:53;60062.31;;;-145.46;78.46
76478;BME280;65309;49.790;18.972;2024-02-16T23:54:57;60037.06;;;-145.46;77.46
76478;BME280;65309;49.790;18.972;2024-02-16T23:59:59;60053.91;;;-145.46;76.71
